createdAt,value
2023-05-15T00:00:13.083Z,87.30
2023-05-15T00:02:58.519Z,87.90
2023-05-15T00:05:44.105Z,87.40
2023-05-15T00:08:29.648Z,87.40
2023-05-15T00:11:15.337Z,87.60
2023-05-15T00:14:00.810Z,86.40
2023-05-15T00:16:46.420Z,85.50
2023-05-15T00:19:32.039Z,87.10
2023-05-15T00:22:17.624Z,87.40
2023-05-15T00:25:03.349Z,86.80
2023-05-15T00:27:48.910Z,86.30
2023-05-15T00:30:34.398Z,86.60
2023-05-15T00:33:20.119Z,85.70
2023-05-15T00:36:05.616Z,85.80
2023-05-15T00:38:50.962Z,86.30
2023-05-15T00:41:37.446Z,87.60
2023-05-15T00:44:23.620Z,87.80
2023-05-15T00:47:10.869Z,87.10
2023-05-15T00:49:56.907Z,87.30
2023-05-15T00:52:43.491Z,86.50
2023-05-15T00:55:29.581Z,85.50
2023-05-15T00:58:15.470Z,86.20
2023-05-15T01:01:01.163Z,86.20
2023-05-15T01:03:47.167Z,85.00
2023-05-15T01:06:32.526Z,85.00
2023-05-15T01:09:19.247Z,85.10
2023-05-15T01:12:07.518Z,86.30
2023-05-15T01:14:52.793Z,86.40
2023-05-15T01:17:38.251Z,87.50
2023-05-15T01:20:23.508Z,88.30
2023-05-15T01:23:40.302Z,91.00
2023-05-15T01:26:47.454Z,92.10
2023-05-15T01:29:37.534Z,92.50
2023-05-15T01:32:54.365Z,93.20
2023-05-15T01:35:39.841Z,96.20
2023-05-15T01:38:38.567Z,97.20
2023-05-15T01:41:48.206Z,96.70
2023-05-15T01:44:43.096Z,96.10
2023-05-15T01:47:38.075Z,94.70
2023-05-15T01:50:23.752Z,93.70
2023-05-15T01:53:10.513Z,93.10
2023-05-15T01:55:56.916Z,92.70
2023-05-15T01:58:43.978Z,93.00
2023-05-15T02:01:30.935Z,93.30
2023-05-15T02:04:18.672Z,93.10
2023-05-15T02:07:04.600Z,91.70
2023-05-15T02:09:51.979Z,90.40
2023-05-15T02:12:38.379Z,90.60
2023-05-15T02:15:25.012Z,90.00
2023-05-15T02:18:11.290Z,90.10
2023-05-15T02:20:56.918Z,89.20
2023-05-15T02:23:42.645Z,88.60
2023-05-15T02:26:43.276Z,89.30
2023-05-15T02:29:57.584Z,90.00
2023-05-15T02:33:07.467Z,89.70
2023-05-15T02:36:17.710Z,89.10
2023-05-15T02:39:03.351Z,89.90
2023-05-15T02:41:50.178Z,90.40
2023-05-15T02:44:37.206Z,90.80
2023-05-15T02:47:23.876Z,89.90
2023-05-15T02:50:09.766Z,89.60
2023-05-15T02:53:05.677Z,89.50
2023-05-15T02:55:51.307Z,89.20
2023-05-15T02:58:38.569Z,88.90
2023-05-15T03:01:23.931Z,89.10
2023-05-15T03:04:09.574Z,89.00
2023-05-15T03:06:54.819Z,87.50
2023-05-15T03:09:40.971Z,87.50
2023-05-15T03:12:26.625Z,88.20
2023-05-15T03:15:12.235Z,88.70
2023-05-15T03:17:57.926Z,89.50
2023-05-15T03:20:43.664Z,88.50
2023-05-15T03:23:28.895Z,89.10
2023-05-15T03:26:14.222Z,89.40
2023-05-15T03:29:01.325Z,89.60
2023-05-15T03:31:46.718Z,88.60
2023-05-15T03:34:32.389Z,88.00
2023-05-15T03:37:18.028Z,88.80
2023-05-15T03:40:04.835Z,89.70
2023-05-15T03:42:53.419Z,89.10
2023-05-15T03:45:39.461Z,90.10
2023-05-15T03:48:24.904Z,90.20
2023-05-15T03:51:10.831Z,90.70
2023-05-15T03:53:56.322Z,91.00
2023-05-15T03:56:41.694Z,90.90
2023-05-15T03:59:27.782Z,90.40
2023-05-15T04:02:13.079Z,90.70
2023-05-15T04:04:58.577Z,92.80
2023-05-15T04:07:44.093Z,94.00
2023-05-15T04:10:29.768Z,94.00
2023-05-15T04:13:14.894Z,94.00
2023-05-15T04:16:01.150Z,94.00
2023-05-15T04:18:46.472Z,92.80
2023-05-15T04:21:31.890Z,91.70
2023-05-15T04:24:17.400Z,91.80
2023-05-15T04:27:02.820Z,91.40
2023-05-15T04:29:48.456Z,91.10
2023-05-15T04:32:34.446Z,90.50
2023-05-15T04:35:20.094Z,88.30
2023-05-15T04:38:05.653Z,88.10
2023-05-15T04:40:51.311Z,86.30
2023-05-15T04:43:37.084Z,85.80
2023-05-15T04:46:23.180Z,84.20
2023-05-15T04:49:08.856Z,83.20
2023-05-15T04:51:54.378Z,83.50
2023-05-15T04:54:39.884Z,83.60
2023-05-15T04:57:25.998Z,83.00
2023-05-15T05:00:12.360Z,83.30
2023-05-15T05:02:58.136Z,82.80
2023-05-15T05:05:43.623Z,81.60
2023-05-15T05:08:29.013Z,81.70
2023-05-15T05:11:14.500Z,79.10
2023-05-15T05:14:00.188Z,78.80
2023-05-15T05:16:45.770Z,77.60
2023-05-15T05:19:31.113Z,77.00
2023-05-15T05:22:16.387Z,76.80
2023-05-15T05:25:02.155Z,76.40
2023-05-15T05:27:47.683Z,76.20
2023-05-15T05:30:33.125Z,75.00
2023-05-15T05:33:18.828Z,72.90
2023-05-15T05:36:05.236Z,74.00
2023-05-15T05:38:50.689Z,73.70
2023-05-15T05:41:36.053Z,73.80
2023-05-15T05:44:21.483Z,74.00
2023-05-15T05:47:07.265Z,74.20
2023-05-15T05:49:52.762Z,74.10
2023-05-15T05:52:38.180Z,73.80
2023-05-15T05:55:23.805Z,72.80
2023-05-15T05:58:24.061Z,72.30
2023-05-15T06:01:11.204Z,72.80
2023-05-15T06:03:56.710Z,72.50
2023-05-15T06:06:42.034Z,73.00
2023-05-15T06:09:27.764Z,72.90
2023-05-15T06:12:13.093Z,73.30
2023-05-15T06:14:58.801Z,73.40
2023-05-15T06:17:44.284Z,74.10
2023-05-15T06:20:29.834Z,72.50
2023-05-15T06:23:15.562Z,72.10
2023-05-15T06:26:01.766Z,71.70
2023-05-15T06:28:47.259Z,69.50
2023-05-15T06:31:32.904Z,72.00
2023-05-15T06:34:18.420Z,72.10
2023-05-15T06:37:03.821Z,71.60
2023-05-15T06:39:49.068Z,70.20
2023-05-15T06:42:34.784Z,72.00
2023-05-15T06:45:20.364Z,71.60
2023-05-15T06:48:05.892Z,70.70
2023-05-15T06:50:51.598Z,70.40
2023-05-15T06:53:37.385Z,71.20
2023-05-15T06:56:22.833Z,71.20
2023-05-15T06:59:08.282Z,68.60
2023-05-15T07:01:54.053Z,68.80
2023-05-15T07:04:39.708Z,71.10
2023-05-15T07:07:25.135Z,69.50
2023-05-15T07:10:11.103Z,69.20
2023-05-15T07:12:56.558Z,67.00
2023-05-15T07:15:42.100Z,66.50
2023-05-15T07:18:27.693Z,65.90
2023-05-15T07:21:13.339Z,64.20
2023-05-15T07:23:58.764Z,67.00
2023-05-15T07:26:57.381Z,63.70
2023-05-15T07:29:44.110Z,64.60
2023-05-15T07:32:30.543Z,62.60
2023-05-15T07:35:16.261Z,61.70
2023-05-15T07:38:01.909Z,54.80
2023-05-15T07:40:47.640Z,55.70
2023-05-15T07:43:33.246Z,57.40
2023-05-15T07:46:18.788Z,59.40
2023-05-15T07:49:04.390Z,56.00
2023-05-15T07:51:49.858Z,58.60
2023-05-15T07:54:35.168Z,54.00
2023-05-15T07:57:20.923Z,55.30
2023-05-15T08:00:12.688Z,55.20
2023-05-15T08:02:59.669Z,56.00
2023-05-15T08:05:45.240Z,55.50
2023-05-15T08:08:30.949Z,51.20
2023-05-15T08:11:16.416Z,53.30
2023-05-15T08:14:01.715Z,48.70
2023-05-15T08:16:49.356Z,53.70
2023-05-15T08:19:34.632Z,50.80
2023-05-15T08:22:20.242Z,49.00
2023-05-15T08:25:07.056Z,45.40
2023-05-15T08:27:52.586Z,47.50
2023-05-15T08:30:38.438Z,46.50
2023-05-15T08:33:23.626Z,50.10
2023-05-15T08:36:09.286Z,52.40
2023-05-15T08:38:54.821Z,49.30
2023-05-15T08:41:52.923Z,52.60
2023-05-15T08:44:39.428Z,52.20
2023-05-15T08:47:27.955Z,53.40
2023-05-15T08:50:15.587Z,55.70
2023-05-15T08:53:02.076Z,52.00
2023-05-15T08:55:47.452Z,51.00
2023-05-15T08:58:33.538Z,46.60
2023-05-15T09:01:19.194Z,49.40
2023-05-15T09:04:05.023Z,49.60
2023-05-15T09:06:50.966Z,53.30
2023-05-15T09:09:37.322Z,53.10
2023-05-15T09:12:25.444Z,51.90
2023-05-15T09:15:17.254Z,51.50
2023-05-15T09:18:02.702Z,50.80
2023-05-15T09:20:47.732Z,48.30
2023-05-15T09:23:33.329Z,45.40
2023-05-15T09:26:19.071Z,43.40
2023-05-15T09:29:04.487Z,39.20
2023-05-15T09:31:50.092Z,38.80
2023-05-15T09:34:39.019Z,40.10
2023-05-15T09:37:34.703Z,43.20
2023-05-15T09:40:19.822Z,44.90
2023-05-15T09:43:05.537Z,44.90
2023-05-15T09:45:50.847Z,44.80
2023-05-15T09:48:36.570Z,47.80
2023-05-15T09:51:22.326Z,45.50
2023-05-15T09:54:15.197Z,45.40
2023-05-15T09:57:12.996Z,48.70
2023-05-15T10:00:10.318Z,48.70
2023-05-15T10:02:58.717Z,46.80
2023-05-15T10:05:44.568Z,46.70
2023-05-15T10:08:30.297Z,47.30
2023-05-15T10:11:15.984Z,46.10
2023-05-15T10:14:01.872Z,46.90
2023-05-15T10:16:47.196Z,45.90
2023-05-15T10:19:33.876Z,47.80
2023-05-15T10:22:23.812Z,48.40
2023-05-15T10:25:31.600Z,46.60
2023-05-15T10:28:18.691Z,47.00
2023-05-15T10:31:05.827Z,45.60
2023-05-15T10:33:51.992Z,44.70
2023-05-15T10:36:38.458Z,41.10
2023-05-15T10:39:26.891Z,39.50
2023-05-15T10:42:12.893Z,38.70
2023-05-15T10:45:01.051Z,38.00
2023-05-15T10:47:47.009Z,37.10
2023-05-15T10:50:32.469Z,37.50
2023-05-15T10:53:17.781Z,36.50
2023-05-15T10:56:03.065Z,37.60
2023-05-15T10:58:49.689Z,37.20
2023-05-15T11:01:37.892Z,37.10
2023-05-15T11:04:23.835Z,37.20
2023-05-15T11:07:14.535Z,36.90
2023-05-15T11:10:00.346Z,37.60
2023-05-15T11:12:59.495Z,37.70
2023-05-15T11:15:46.615Z,37.30
2023-05-15T11:18:37.838Z,37.90
2023-05-15T11:21:23.337Z,37.40
2023-05-15T11:24:11.996Z,36.90
2023-05-15T11:27:05.170Z,36.40
2023-05-15T11:30:08.825Z,36.60
2023-05-15T11:33:00.566Z,37.30
2023-05-15T11:35:57.460Z,36.70
2023-05-15T11:38:43.739Z,35.30
2023-05-15T11:41:32.026Z,28.30
2023-05-15T11:44:24.536Z,32.30
2023-05-15T11:47:11.095Z,32.20
2023-05-15T11:49:56.503Z,31.60
2023-05-15T11:52:42.631Z,32.10
2023-05-15T11:55:29.287Z,30.20
2023-05-15T11:58:17.136Z,28.50
2023-05-15T12:01:02.661Z,27.70
2023-05-15T12:03:50.068Z,31.60
2023-05-15T12:06:35.653Z,28.20
2023-05-15T12:09:22.678Z,24.10
2023-05-15T12:12:14.474Z,22.90
2023-05-15T12:15:00.772Z,24.20
2023-05-15T12:17:46.875Z,27.40
2023-05-15T12:20:35.039Z,27.30
2023-05-15T12:23:23.179Z,28.80
2023-05-15T12:26:08.811Z,28.00
2023-05-15T12:28:55.465Z,28.20
2023-05-15T12:31:40.890Z,32.30
2023-05-15T12:34:26.445Z,39.50
2023-05-15T12:37:15.059Z,43.60
2023-05-15T12:40:02.445Z,42.70
2023-05-15T12:42:54.266Z,46.50
2023-05-15T12:45:40.738Z,48.90
2023-05-15T12:48:32.169Z,48.40
2023-05-15T12:51:18.543Z,53.30
2023-05-15T12:54:03.794Z,52.30
2023-05-15T12:56:49.792Z,53.90
2023-05-15T12:59:35.778Z,53.60
2023-05-15T13:02:23.364Z,52.80
2023-05-15T13:05:09.171Z,56.00
2023-05-15T13:07:55.124Z,59.10
2023-05-15T13:10:40.391Z,55.90
2023-05-15T13:13:45.893Z,54.60
2023-05-15T13:16:31.288Z,54.40
2023-05-15T13:19:17.472Z,52.20
2023-05-15T13:22:03.354Z,54.50
2023-05-15T13:24:48.892Z,56.50
2023-05-15T13:27:34.609Z,54.60
2023-05-15T13:30:20.465Z,56.00
2023-05-15T13:33:05.666Z,56.60
2023-05-15T13:35:51.822Z,57.90
2023-05-15T13:38:37.100Z,53.10
2023-05-15T13:41:22.586Z,54.70
2023-05-15T13:44:07.955Z,58.00
2023-05-15T13:46:53.442Z,56.10
2023-05-15T13:49:39.167Z,54.10
2023-05-15T13:52:25.456Z,54.80
2023-05-15T13:55:11.229Z,53.60
2023-05-15T13:57:56.929Z,53.90
2023-05-15T14:00:43.664Z,52.40
2023-05-15T14:03:29.307Z,50.60
2023-05-15T14:06:14.869Z,50.30
2023-05-15T14:09:00.505Z,50.10
2023-05-15T14:11:45.883Z,50.40
2023-05-15T14:14:31.432Z,55.40
2023-05-15T14:17:17.015Z,51.50
2023-05-15T14:20:02.635Z,52.90
2023-05-15T14:22:48.317Z,53.10
2023-05-15T14:25:34.005Z,53.80
2023-05-15T14:28:19.340Z,51.90
2023-05-15T14:31:05.156Z,53.30
2023-05-15T14:33:52.564Z,55.80
2023-05-15T14:36:38.235Z,52.60
2023-05-15T14:39:23.616Z,52.70
2023-05-15T14:42:09.136Z,53.50
2023-05-15T14:44:54.899Z,56.10
2023-05-15T14:47:40.470Z,58.30
2023-05-15T14:50:25.965Z,58.40
2023-05-15T14:53:11.873Z,57.60
2023-05-15T14:55:58.606Z,59.60
2023-05-15T14:58:44.304Z,57.60
2023-05-15T15:01:29.601Z,56.20
2023-05-15T15:04:14.817Z,55.70
2023-05-15T15:07:03.866Z,57.00
2023-05-15T15:09:49.616Z,56.70
2023-05-15T15:12:35.086Z,58.00
2023-05-15T15:15:21.314Z,58.40
2023-05-15T15:18:07.761Z,58.90
2023-05-15T15:20:53.090Z,58.40
2023-05-15T15:23:38.810Z,59.10
2023-05-15T15:26:24.200Z,59.00
2023-05-15T15:29:09.520Z,59.40
2023-05-15T15:31:55.065Z,58.40
2023-05-15T15:34:40.612Z,58.40
2023-05-15T15:37:29.666Z,57.90
2023-05-15T15:40:15.353Z,58.40
2023-05-15T15:43:01.618Z,58.50
2023-05-15T15:45:47.062Z,59.50
2023-05-15T15:48:32.499Z,60.60
2023-05-15T15:51:18.125Z,60.10
2023-05-15T15:54:03.895Z,61.10
2023-05-15T15:56:49.295Z,59.80
2023-05-15T15:59:34.629Z,61.10
2023-05-15T16:02:21.010Z,60.40
2023-05-15T16:05:07.822Z,59.40
2023-05-15T16:07:53.279Z,59.40
2023-05-15T16:10:38.498Z,59.60
2023-05-15T16:13:24.071Z,60.40
2023-05-15T16:16:09.747Z,59.30
2023-05-15T16:18:55.183Z,61.20
2023-05-15T16:21:40.718Z,60.30
2023-05-15T16:24:26.468Z,60.20
2023-05-15T16:27:11.988Z,62.40
2023-05-15T16:29:57.554Z,62.10
2023-05-15T16:32:43.119Z,63.60
2023-05-15T16:35:28.583Z,62.70
2023-05-15T16:38:14.576Z,62.70
2023-05-15T16:41:00.268Z,63.50
2023-05-15T16:43:45.524Z,65.60
2023-05-15T16:46:31.120Z,65.10
2023-05-15T16:49:16.763Z,66.60
2023-05-15T16:52:01.924Z,65.20
2023-05-15T16:54:48.610Z,65.30
2023-05-15T16:57:37.294Z,63.20
2023-05-15T17:00:23.146Z,63.90
2023-05-15T17:03:08.649Z,66.70
2023-05-15T17:05:54.362Z,67.10
2023-05-15T17:08:39.808Z,67.80
2023-05-15T17:11:25.680Z,65.80
2023-05-15T17:14:10.861Z,66.90
2023-05-15T17:16:56.240Z,66.00
2023-05-15T17:19:41.523Z,64.90
2023-05-15T17:22:27.194Z,65.50
2023-05-15T17:25:12.926Z,63.70
2023-05-15T17:27:58.548Z,62.40
2023-05-15T17:30:44.744Z,62.50
2023-05-15T17:33:30.063Z,61.40
2023-05-15T17:36:15.687Z,59.30
2023-05-15T17:39:01.473Z,57.60
2023-05-15T17:41:46.974Z,59.50
2023-05-15T17:44:32.395Z,61.30
2023-05-15T17:47:17.960Z,60.30
2023-05-15T17:50:03.491Z,59.90
2023-05-15T17:52:48.940Z,61.80
2023-05-15T17:55:35.039Z,63.20
2023-05-15T17:58:21.272Z,64.10
2023-05-15T18:01:07.199Z,64.80
2023-05-15T18:03:52.551Z,65.90
2023-05-15T18:06:38.380Z,65.20
2023-05-15T18:09:24.849Z,65.60
2023-05-15T18:12:10.743Z,67.60
2023-05-15T18:14:56.427Z,68.80
2023-05-15T18:17:41.768Z,70.50
2023-05-15T18:20:27.563Z,70.90
2023-05-15T18:23:12.956Z,70.50
2023-05-15T18:25:58.607Z,70.20
2023-05-15T18:28:44.105Z,70.00
2023-05-15T18:31:29.455Z,68.90
2023-05-15T18:34:15.001Z,69.50
2023-05-15T18:37:00.687Z,70.70
2023-05-15T18:39:48.003Z,70.20
2023-05-15T18:42:33.785Z,69.00
2023-05-15T18:45:21.547Z,68.80
2023-05-15T18:48:07.657Z,69.00
2023-05-15T18:50:53.627Z,68.50
2023-05-15T18:53:39.112Z,68.90
2023-05-15T18:56:25.218Z,68.00
2023-05-15T18:59:10.797Z,69.80
2023-05-15T19:01:56.495Z,70.20
2023-05-15T19:04:41.876Z,70.80
2023-05-15T19:07:30.786Z,71.50
2023-05-15T19:10:16.387Z,69.70
2023-05-15T19:13:01.744Z,69.70
2023-05-15T19:15:51.794Z,69.20
2023-05-15T19:18:37.254Z,69.90
2023-05-15T19:21:23.023Z,71.60
2023-05-15T19:24:08.707Z,72.50
2023-05-15T19:26:54.146Z,73.50
2023-05-15T19:29:40.929Z,74.40
2023-05-15T19:32:27.683Z,74.00
2023-05-15T19:35:13.456Z,73.90
2023-05-15T19:37:59.090Z,73.30
2023-05-15T19:40:45.568Z,72.90
2023-05-15T19:43:35.806Z,73.20
2023-05-15T19:46:21.335Z,73.30
2023-05-15T19:49:06.564Z,73.70
2023-05-15T19:51:52.081Z,73.80
2023-05-15T19:54:37.533Z,73.40
2023-05-15T19:57:23.079Z,73.30
2023-05-15T20:00:10.392Z,72.70
2023-05-15T20:02:55.887Z,72.50
2023-05-15T20:05:41.635Z,72.30
2023-05-15T20:08:27.757Z,72.90
2023-05-15T20:11:13.378Z,72.20
2023-05-15T20:13:58.985Z,72.80
2023-05-15T20:16:44.771Z,72.50
2023-05-15T20:19:31.557Z,73.50
2023-05-15T20:22:17.484Z,73.80
2023-05-15T20:25:03.487Z,73.50
2023-05-15T20:27:49.019Z,74.20
2023-05-15T20:30:34.634Z,74.40
2023-05-15T20:33:20.097Z,75.10
2023-05-15T20:36:06.136Z,75.20
2023-05-15T20:38:52.828Z,75.30
2023-05-15T20:41:38.378Z,75.80
2023-05-15T20:44:23.614Z,75.70
2023-05-15T20:47:09.065Z,76.50
2023-05-15T20:49:54.803Z,77.30
2023-05-15T20:52:40.119Z,77.00
2023-05-15T20:55:25.555Z,76.70
2023-05-15T20:58:10.823Z,76.80
2023-05-15T21:00:58.227Z,77.40
2023-05-15T21:03:44.092Z,78.30
2023-05-15T21:06:29.764Z,78.30
2023-05-15T21:09:16.668Z,78.40
2023-05-15T21:12:04.161Z,78.20
2023-05-15T21:14:49.549Z,78.20
2023-05-15T21:17:34.897Z,78.90
2023-05-15T21:20:20.586Z,79.20
2023-05-15T21:23:05.990Z,79.20
2023-05-15T21:25:51.440Z,79.70
2023-05-15T21:28:37.164Z,80.50
2023-05-15T21:31:22.514Z,80.10
2023-05-15T21:34:08.186Z,79.80
2023-05-15T21:36:53.768Z,79.20
2023-05-15T21:39:39.208Z,79.20
2023-05-15T21:42:24.559Z,78.90
2023-05-15T21:45:10.331Z,79.20
2023-05-15T21:47:56.367Z,78.60
2023-05-15T21:50:41.941Z,78.80
2023-05-15T21:53:27.696Z,78.20
2023-05-15T21:56:12.951Z,78.40
2023-05-15T21:58:58.513Z,77.90
2023-05-15T22:01:44.004Z,77.60
2023-05-15T22:04:30.411Z,78.40
2023-05-15T22:07:16.583Z,78.30
2023-05-15T22:10:03.494Z,78.10
2023-05-15T22:12:49.561Z,77.40
2023-05-15T22:15:35.364Z,78.00
2023-05-15T22:18:21.313Z,78.40
2023-05-15T22:21:06.883Z,78.50
2023-05-15T22:23:52.402Z,78.80
2023-05-15T22:26:38.038Z,78.90
2023-05-15T22:29:23.627Z,78.70
2023-05-15T22:32:09.262Z,78.40
2023-05-15T22:34:55.819Z,79.40
2023-05-15T22:37:42.148Z,79.80
2023-05-15T22:40:28.058Z,81.00
2023-05-15T22:43:13.868Z,81.70
2023-05-15T22:45:59.229Z,81.60
2023-05-15T22:48:44.665Z,81.30
2023-05-15T22:51:31.444Z,80.50
2023-05-15T22:54:21.575Z,81.30
2023-05-15T22:57:08.765Z,83.20
2023-05-15T22:59:55.264Z,83.30
2023-05-15T23:02:42.640Z,84.20
2023-05-15T23:05:29.493Z,84.10
2023-05-15T23:08:14.743Z,84.20
2023-05-15T23:11:01.052Z,84.10
2023-05-15T23:13:46.353Z,84.40
2023-05-15T23:16:32.187Z,83.90
2023-05-15T23:19:17.537Z,83.40
2023-05-15T23:22:03.599Z,82.80
2023-05-15T23:24:49.098Z,82.50
2023-05-15T23:27:34.727Z,82.20
2023-05-15T23:30:20.258Z,82.40
2023-05-15T23:33:05.507Z,82.70
2023-05-15T23:35:50.790Z,82.60
2023-05-15T23:38:36.213Z,82.20
2023-05-15T23:41:26.327Z,82.40
2023-05-15T23:44:11.815Z,82.30
2023-05-15T23:46:57.434Z,82.30
2023-05-15T23:49:43.354Z,82.30
2023-05-15T23:52:29.065Z,82.40
2023-05-15T23:55:14.447Z,82.60
2023-05-15T23:57:59.747Z,82.90
